• Join FlightAware (Why Join?)
  • Login
  • US Flag 
11:54PM EDT


 

Airport Tracker/Info


-or-


 

Live Flight TrackerFlight Track Log ✈ NLI239 ✈ 28-Aug-2013 ✈ CYXE - CEB5

Flight Track Log - Related Links

Times and Time Zones

All times are in EDT time to prevent confusion due to time zone crossing. See the NLI239 flight status page for this flight to view local times or setup timezone preferences in your user account.

Time Position Orientation Groundspeed Altitude Reporting Facility
EDT Latitude Longitude Course Direction KTS MPH feet Rate Location/Type
05:51PM 52.1667 -106.7500 299° West 150 173 2,100  Level Winnipeg Center
05:52PM 52.1833 -106.8167 292° West 160 184 3,900 1,860 Climbing Winnipeg Center
05:53PM 52.2167 -106.8500 329° Northwest 160 184 5,900 1,860 Climbing Winnipeg Center
05:54PM 52.2333 -106.9167 292° West 160 184 7,700 1,620 Climbing Winnipeg Center
05:55PM 52.2500 -106.9667 299° West 160 184 9,200 1,560 Climbing Winnipeg Center
05:56PM 52.3000 -107.0333 321° Northwest 170 196 10,900 1,500 Climbing Winnipeg Center
05:57PM 52.3000 -107.1167 270° West 170 196 12,300 1,500 Climbing Winnipeg Center
05:58PM 52.3333 -107.1833 309° West 180 207 13,900 1,500 Climbing Winnipeg Center
05:59PM 52.3667 -107.2500 309° West 180 207 15,300 1,440 Climbing Winnipeg Center
06:00PM 52.3833 -107.3000 299° West 180 207 16,800 1,320 Climbing Winnipeg Center
06:01PM 52.4167 -107.4000 299° West 190 219 18,000 1,200 Climbing Winnipeg Center
06:02PM 52.4667 -107.4667 321° Northwest 190 219 19,200 1,140 Climbing Winnipeg Center
06:03PM 52.4833 -107.5167 299° West 190 219 20,300 1,020 Climbing Winnipeg Center
06:04PM 52.5167 -107.6167 299° West 190 219 21,300 900 Climbing Winnipeg Center
06:05PM 52.5500 -107.6667 318° Northwest 190 219 22,200 900 Climbing Winnipeg Center
06:06PM 52.5667 -107.7667 285° West 200 230 23,100 780 Climbing Winnipeg Center
06:07PM 52.6000 -107.8333 309° West 200 230 23,800 600 Climbing Winnipeg Center
06:08PM 52.6333 -107.9167 303° West 210 242 24,400 600 Climbing Winnipeg Center
06:09PM 52.6667 -108.0167 299° West 210 242 25,100 600 Climbing Winnipeg Center
06:10PM 52.7000 -108.0667 318° Northwest 210 242 25,600 420 Climbing Winnipeg Center
06:11PM 52.7333 -108.1667 299° West 210 242 26,000 180 Climbing Winnipeg Center
06:12PM 52.7667 -108.2333 310° West 220 253 26,000  Level Winnipeg Center
06:13PM 52.8000 -108.3167 304° West 230 265 26,000  Level Winnipeg Center
06:14PM 52.8500 -108.4167 310° West 240 276 26,000  Level Winnipeg Center
06:15PM 52.8667 -108.5167 285° West 240 276 26,000  Level Winnipeg Center
06:16PM 52.9167 -108.6000 315° West 240 276 26,000  Level Winnipeg Center
06:17PM 52.9500 -108.7000 299° West 240 276 26,000  Level Winnipeg Center
06:18PM 52.9833 -108.7833 304° West 240 276 26,000  Level Winnipeg Center
06:19PM 53.0167 -108.8833 299° West 240 276 26,000  Level Winnipeg Center
06:20PM 53.0667 -108.9833 310° West 240 276 26,000  Level Winnipeg Center
06:21PM 53.0833 -109.0667 288° West 240 276 26,000  Level Winnipeg Center
06:22PM 53.1167 -109.1667 299° West 250 288 26,000  Level Winnipeg Center
06:23PM 53.1667 -109.2667 310° West 250 288 26,000  Level Winnipeg Center
06:24PM 53.1833 -109.3500 288° West 240 276 26,000  Level Winnipeg Center
06:25PM 53.2333 -109.4500 310° West 240 276 26,000  Level Winnipeg Center
06:26PM 53.2667 -109.5500 299° West 240 276 26,000  Level Winnipeg Center
06:27PM 53.3167 -109.6500 310° West 240 276 26,000  Level Winnipeg Center
06:28PM 53.3333 -109.7333 289° West 250 288 26,000  Level Winnipeg Center
06:29PM 53.3833 -109.8333 310° West 250 288 26,000  Level Winnipeg Center
06:30PM 53.4167 -109.9333 299° West 250 288 26,000  Level Winnipeg Center
06:31PM 53.4500 -110.0333 299° West 240 276 26,000  Level Winnipeg Center
06:32PM 53.5000 -110.1333 310° West 240 276 26,000  Level Winnipeg Center
06:33PM 53.5167 -110.2167 289° West 240 276 26,000  Level Winnipeg Center
06:34PM 53.5667 -110.3167 310° West 230 265 26,000  Level Winnipeg Center
06:35PM 53.5833 -110.4167 286° West 240 276 26,000  Level Winnipeg Center
06:36PM 53.6167 -110.5167 299° West 240 276 26,000  Level Winnipeg Center
06:37PM 53.6667 -110.6167 310° West 240 276 26,000  Level Winnipeg Center
06:38PM 53.6833 -110.7000 289° West 240 276 26,000  Level Winnipeg Center
06:39PM 53.7167 -110.8000 299° West 240 276 26,000  Level Winnipeg Center
06:40PM 53.7667 -110.9000 310° West 240 276 26,000  Level Winnipeg Center
06:41PM 53.7833 -111.0000 286° West 250 288 26,000  Level Winnipeg Center
06:42PM 53.8333 -111.1000 310° West 240 276 26,000  Level Winnipeg Center
06:43PM 53.8667 -111.2000 300° West 240 276 26,000  Level Winnipeg Center
06:44PM 53.9000 -111.3000 300° West 240 276 26,000  Level Winnipeg Center
06:45PM 53.9333 -111.4000 300° West 240 276 26,000  Level Winnipeg Center
06:46PM 53.9667 -111.5000 300° West 240 276 26,000  Level Winnipeg Center
06:47PM 54.0000 -111.6000 300° West 240 276 26,000  Level Winnipeg Center
06:48PM 54.0333 -111.6833 304° West 240 276 26,000  Level Winnipeg Center
06:49PM 54.0667 -111.7833 300° West 240 276 26,000  Level Winnipeg Center
06:50PM 54.1000 -111.8833 300° West 240 276 26,000  Level Winnipeg Center
06:51PM 54.1500 -111.9833 311° West 240 276 26,000  Level Winnipeg Center
06:52PM 54.1667 -112.0833 286° West 250 288 26,000  Level Winnipeg Center
06:53PM 54.2000 -112.2167 293° West 250 288 26,000  Level Winnipeg Center
06:54PM 54.2333 -112.2833 311° West 250 288 26,000  Level Winnipeg Center
06:55PM 54.2833 -112.3833 311° West 250 288 26,000  Level Winnipeg Center
06:56PM 54.3000 -112.5167 282° West 250 288 26,000  Level Winnipeg Center
06:57PM 54.3333 -112.6167 300° West 250 288 26,000  Level Winnipeg Center
06:58PM 54.3667 -112.7167 300° West 250 288 26,000  Level Winnipeg Center
06:59PM 54.4167 -112.8167 311° West 250 288 26,000  Level Winnipeg Center
07:00PM 54.4500 -112.9167 300° West 250 288 26,000  Level Winnipeg Center
07:01PM 54.4667 -113.0167 286° West 250 288 26,000  Level Winnipeg Center
07:02PM 54.5167 -113.1500 303° West 240 276 26,000  Level Edmonton Center
07:03PM 54.5500 -113.2333 305° West 250 288 26,000  Level Edmonton Center
07:04PM 54.5667 -113.3333 286° West 250 288 26,000  Level Edmonton Center
07:05PM 54.6167 -113.4333 311° West 250 288 26,000  Level Edmonton Center
07:06PM 54.6500 -113.5500 296° West 240 276 26,000  Level Edmonton Center
07:07PM 54.6833 -113.6500 300° West 240 276 26,000  Level Edmonton Center
07:08PM 54.7167 -113.7833 293° West 240 276 26,000  Level Edmonton Center
07:09PM 54.7333 -113.8667 289° West 240 276 26,000  Level Edmonton Center
07:10PM 54.7833 -113.9667 311° West 240 276 26,000  Level Edmonton Center
07:11PM 54.8167 -114.0667 300° West 240 276 26,000  Level Edmonton Center
07:12PM 54.8333 -114.1833 284° West 240 276 26,000  Level Edmonton Center
07:13PM 54.8833 -114.2833 311° West 240 276 26,000  Level Edmonton Center
07:14PM 54.9000 -114.3833 286° West 240 276 26,000  Level Edmonton Center
07:15PM 54.9333 -114.4833 300° West 240 276 26,000  Level Edmonton Center
07:16PM 54.9667 -114.5833 300° West 240 276 26,000  Level Edmonton Center
07:17PM 55.0000 -114.7000 297° West 240 276 26,000  Level Edmonton Center
07:18PM 55.0167 -114.8000 286° West 250 288 26,000  Level Edmonton Center
07:19PM 55.0667 -114.9000 311° West 240 276 26,000  Level Edmonton Center
07:20PM 55.1000 -115.0000 300° West 240 276 26,000  Level Edmonton Center
07:21PM 55.1333 -115.1333 294° West 240 276 26,000  Level Edmonton Center
07:22PM 55.1667 -115.2167 305° West 240 276 26,000  Level Edmonton Center
07:23PM 55.1833 -115.3167 286° West 240 276 26,000  Level Edmonton Center
07:24PM 55.2333 -115.4167 311° West 240 276 26,000  Level Edmonton Center
07:25PM 55.2500 -115.5167 286° West 230 265 26,000  Level Edmonton Center
07:26PM 55.2833 -115.6500 294° West 240 276 26,000  Level Edmonton Center
07:27PM 55.3000 -115.7500 286° West 230 265 26,000  Level Edmonton Center
07:28PM 55.3500 -115.8500 311° West 230 265 26,000  Level Edmonton Center
07:29PM 55.3667 -115.9333 289° West 230 265 26,100  Climbing Edmonton Center
07:30PM 55.4000 -116.0333 300° West 230 265 26,000 -60 Descending Edmonton Center
07:31PM 55.4167 -116.1333 286° West 230 265 26,000 -120 Level Edmonton Center
07:32PM 55.4667 -116.2333 311° West 240 276 25,800 -600 Descending Edmonton Center
07:33PM 55.4833 -116.3667 282° West 240 276 24,900 -1,200 Descending Edmonton Center
07:34PM 55.5167 -116.4667 301° West 260 299 23,500 -1,200 Descending Edmonton Center
07:35PM 55.5500 -116.6000 294° West 260 299 22,600 -900 Descending Edmonton Center
07:36PM 55.5833 -116.7000 301° West 260 299 21,800 -1,140 Descending Edmonton Center
07:37PM 55.6000 -116.8333 283° West 250 288 20,400 -1,500 Descending Edmonton Center
07:38PM 55.6500 -116.9333 312° West 270 311 18,900 -1,560 Descending Edmonton Center
07:39PM 55.6833 -117.0667 294° West 270 311 17,300 -1,560 Descending Edmonton Center
07:40PM 55.7167 -117.1667 301° West 270 311 15,800 -1,560 Descending Edmonton Center
07:41PM 55.7500 -117.3000 294° West 270 311 14,200 -1,560 Descending Edmonton Center
07:42PM 55.7833 -117.4333 294° West 270 311 12,700 -1,560 Descending Edmonton Center
07:43PM 55.8000 -117.5667 283° West 270 311 11,100 -1,560 Descending Edmonton Center
07:44PM 55.8500 -117.6667 312° West 270 311 9,600 -1,440 Descending Edmonton Center
07:45PM 55.8667 -117.8000 283° West 270 311 8,300 -1,320 Descending Edmonton Center
07:46PM 55.9000 -117.9000 301° West 260 299 7,000 -1,200 Descending Edmonton Center
07:47PM 55.9333 -118.0000 301° West 240 276 6,000 -960 Descending Edmonton Center
07:48PM 55.9667 -118.1500 292° West 230 265 5,100 -900 Descending Edmonton Center
07:50PM 56.0213 -118.2306 301° West  Level FlightAware Approximate
07:57PM 56.0667 -118.4167 287° West  Level FlightAware Approximate
07:58PM 56.0667 -118.4167 287° West  Level FlightAware Approximate
07:59PM 56.0667 -118.4167 287° West  Level FlightAware Approximate
08:00PM 56.0667 -118.4167 287° West  Level FlightAware Approximate
08:01PM 56.0667 -118.4167 287° West  Level FlightAware Approximate
08:02PM 56.0667 -118.4167 287° West  Level FlightAware Approximate
08:03PM 56.0667 -118.4167 287° West  Level FlightAware Approximate
08:04PM 56.0667 -118.4167 287° West  Level FlightAware Approximate
08:05PM 56.0667 -118.4167 287° West  Level FlightAware Approximate
08:06PM 56.0667 -118.4167 287° West  Level FlightAware Approximate
08:07PM 56.0667 -118.4167 287° West  Level FlightAware Approximate